sensor_id;sensor_type;location;lat;lon;timestamp;pressure;altitude;pressure_sealevel;temperature;humidity
74960;BME280;63518;49.572;1.106;2023-02-08T00:01:20;101627.94;;;-2.80;77.52
74960;BME280;63518;49.572;1.106;2023-02-08T00:03:48;101579.50;;;-3.09;77.89
74960;BME280;63518;49.572;1.106;2023-02-08T00:06:16;101635.75;;;-2.49;77.05
74960;BME280;63518;49.572;1.106;2023-02-08T00:08:44;101639.72;;;-2.26;79.47
74960;BME280;63518;49.572;1.106;2023-02-08T00:11:12;101630.78;;;-2.09;79.04
74960;BME280;63518;49.572;1.106;2023-02-08T00:13:40;101628.78;;;-2.07;77.99
74960;BME280;63518;49.572;1.106;2023-02-08T00:16:08;101628.78;;;-2.07;79.31
74960;BME280;63518;49.572;1.106;2023-02-08T00:18:36;101612.63;;;-1.98;79.01
74960;BME280;63518;49.572;1.106;2023-02-08T00:21:12;101631.47;;;-1.71;78.07
74960;BME280;63518;49.572;1.106;2023-02-08T00:23:40;101600.47;;;-2.02;77.90
74960;BME280;63518;49.572;1.106;2023-02-08T00:26:08;101638.97;;;-1.83;78.39
74960;BME280;63518;49.572;1.106;2023-02-08T00:28:35;101643.75;;;-1.76;77.67
74960;BME280;63518;49.572;1.106;2023-02-08T00:31:03;101652.41;;;-1.91;78.41
74960;BME280;63518;49.572;1.106;2023-02-08T00:33:31;101640.91;;;-1.93;77.54
74960;BME280;63518;49.572;1.106;2023-02-08T00:36:04;101644.94;;;-1.97;77.97
74960;BME280;63518;49.572;1.106;2023-02-08T00:38:32;101635.03;;;-2.06;77.11
74960;BME280;63518;49.572;1.106;2023-02-08T00:41:00;101638.72;;;-2.07;77.69
74960;BME280;63518;49.572;1.106;2023-02-08T00:43:27;101640.75;;;-1.91;77.75
74960;BME280;63518;49.572;1.106;2023-02-08T00:45:58;101632.19;;;-2.04;78.61
74960;BME280;63518;49.572;1.106;2023-02-08T00:48:26;101626.88;;;-1.96;78.42
74960;BME280;63518;49.572;1.106;2023-02-08T00:53:26;101608.50;;;-2.11;77.68
74960;BME280;63518;49.572;1.106;2023-02-08T00:55:59;101580.69;;;-2.39;77.22
74960;BME280;63518;49.572;1.106;2023-02-08T00:58:26;101638.53;;;-1.96;77.75
74960;BME280;63518;49.572;1.106;2023-02-08T01:00:55;101628.84;;;-1.98;77.52
74960;BME280;63518;49.572;1.106;2023-02-08T01:03:23;101625.69;;;-2.12;77.63
74960;BME280;63518;49.572;1.106;2023-02-08T01:05:51;101604.38;;;-2.50;76.24
74960;BME280;63518;49.572;1.106;2023-02-08T01:08:19;101602.97;;;-2.82;76.42
74960;BME280;63518;49.572;1.106;2023-02-08T01:10:48;101605.41;;;-2.88;76.93
74960;BME280;63518;49.572;1.106;2023-02-08T01:13:19;101616.63;;;-2.93;77.26
74960;BME280;63518;49.572;1.106;2023-02-08T01:15:46;101596.25;;;-3.05;77.18
74960;BME280;63518;49.572;1.106;2023-02-08T01:18:14;101584.94;;;-3.19;76.67
74960;BME280;63518;49.572;1.106;2023-02-08T01:20:46;101609.53;;;-3.22;77.59
74960;BME280;63518;49.572;1.106;2023-02-08T01:23:13;101572.25;;;-2.99;77.31
74960;BME280;63518;49.572;1.106;2023-02-08T01:25:41;101589.66;;;-2.83;77.17
74960;BME280;63518;49.572;1.106;2023-02-08T01:28:08;101600.97;;;-2.80;76.81
74960;BME280;63518;49.572;1.106;2023-02-08T01:30:36;101587.31;;;-2.78;77.79
74960;BME280;63518;49.572;1.106;2023-02-08T01:33:03;101588.53;;;-2.45;78.90
74960;BME280;63518;49.572;1.106;2023-02-08T01:35:31;101601.16;;;-2.36;77.55
74960;BME280;63518;49.572;1.106;2023-02-08T01:37:58;101581.41;;;-2.37;78.66
74960;BME280;63518;49.572;1.106;2023-02-08T01:40:26;101601.22;;;-2.10;78.28
74960;BME280;63518;49.572;1.106;2023-02-08T01:42:55;101572.13;;;-2.16;78.44
74960;BME280;63518;49.572;1.106;2023-02-08T01:45:25;101553.59;;;-2.47;79.48
74960;BME280;63518;49.572;1.106;2023-02-08T01:48:20;101608.63;;;-1.94;78.41
74960;BME280;63518;49.572;1.106;2023-02-08T01:53:36;101583.13;;;-2.63;75.80
74960;BME280;63518;49.572;1.106;2023-02-08T01:56:06;101615.34;;;-2.34;76.40
74960;BME280;63518;49.572;1.106;2023-02-08T01:58:40;101555.19;;;-2.72;77.96
74960;BME280;63518;49.572;1.106;2023-02-08T02:01:10;101607.72;;;-2.21;78.52
74960;BME280;63518;49.572;1.106;2023-02-08T02:03:40;101598.28;;;-2.17;78.26
74960;BME280;63518;49.572;1.106;2023-02-08T02:06:11;101558.63;;;-2.34;77.42
74960;BME280;63518;49.572;1.106;2023-02-08T02:08:45;101580.41;;;-2.36;76.78
74960;BME280;63518;49.572;1.106;2023-02-08T02:11:15;101596.44;;;-2.34;77.41
74960;BME280;63518;49.572;1.106;2023-02-08T02:13:47;101580.22;;;-2.34;78.36
74960;BME280;63518;49.572;1.106;2023-02-08T02:16:19;101525.66;;;-2.73;76.29
74960;BME280;63518;49.572;1.106;2023-02-08T02:18:47;101587.47;;;-2.52;74.95
74960;BME280;63518;49.572;1.106;2023-02-08T02:21:33;101600.06;;;-2.25;75.45
74960;BME280;63518;49.572;1.106;2023-02-08T02:24:40;101572.97;;;-2.79;76.78
74960;BME280;63518;49.572;1.106;2023-02-08T02:27:18;101591.91;;;-2.61;79.33
74960;BME280;63518;49.572;1.106;2023-02-08T02:32:53;101590.28;;;-2.26;79.89
74960;BME280;63518;49.572;1.106;2023-02-08T02:35:32;101582.41;;;-2.20;79.18
74960;BME280;63518;49.572;1.106;2023-02-08T02:38:47;101573.22;;;-2.09;79.83
74960;BME280;63518;49.572;1.106;2023-02-08T02:41:39;101561.63;;;-2.37;78.83
74960;BME280;63518;49.572;1.106;2023-02-08T02:50:05;101576.28;;;-2.40;79.06
74960;BME280;63518;49.572;1.106;2023-02-08T02:52:42;101570.03;;;-2.40;78.18
74960;BME280;63518;49.572;1.106;2023-02-08T02:55:14;101546.06;;;-2.43;79.63
74960;BME280;63518;49.572;1.106;2023-02-08T02:57:44;101571.03;;;-2.23;79.52
74960;BME280;63518;49.572;1.106;2023-02-08T03:00:21;101561.81;;;-2.21;79.38
74960;BME280;63518;49.572;1.106;2023-02-08T03:02:50;101546.81;;;-2.33;79.19
74960;BME280;63518;49.572;1.106;2023-02-08T03:05:18;101566.13;;;-2.28;78.22
74960;BME280;63518;49.572;1.106;2023-02-08T03:08:50;101574.22;;;-2.28;78.31
74960;BME280;63518;49.572;1.106;2023-02-08T03:11:17;101562.41;;;-2.27;79.20
74960;BME280;63518;49.572;1.106;2023-02-08T03:14:02;101554.00;;;-2.24;79.20
74960;BME280;63518;49.572;1.106;2023-02-08T03:20:06;101553.75;;;-2.30;78.64
74960;BME280;63518;49.572;1.106;2023-02-08T03:22:37;101566.13;;;-2.28;79.11
74960;BME280;63518;49.572;1.106;2023-02-08T03:25:10;101552.69;;;-2.38;77.51
74960;BME280;63518;49.572;1.106;2023-02-08T03:27:50;101511.94;;;-2.80;78.17
74960;BME280;63518;49.572;1.106;2023-02-08T03:30:53;101497.06;;;-2.84;79.19
74960;BME280;63518;49.572;1.106;2023-02-08T03:33:30;101532.91;;;-2.74;77.92
74960;BME280;63518;49.572;1.106;2023-02-08T03:36:13;101528.44;;;-2.83;78.90
74960;BME280;63518;49.572;1.106;2023-02-08T03:38:46;101567.66;;;-2.43;78.86
74960;BME280;63518;49.572;1.106;2023-02-08T03:41:23;101533.94;;;-2.57;77.47
74960;BME280;63518;49.572;1.106;2023-02-08T03:46:33;101553.75;;;-2.66;78.84
74960;BME280;63518;49.572;1.106;2023-02-08T03:49:07;101556.13;;;-2.63;78.61
74960;BME280;63518;49.572;1.106;2023-02-08T03:51:38;101546.81;;;-2.51;78.47
74960;BME280;63518;49.572;1.106;2023-02-08T03:54:11;101518.09;;;-2.70;78.30
74960;BME280;63518;49.572;1.106;2023-02-08T03:56:56;101541.34;;;-2.59;77.76
74960;BME280;63518;49.572;1.106;2023-02-08T03:59:31;101544.97;;;-2.50;78.35
74960;BME280;63518;49.572;1.106;2023-02-08T04:02:06;101552.06;;;-2.31;79.94
74960;BME280;63518;49.572;1.106;2023-02-08T04:04:38;101554.84;;;-2.23;79.48
74960;BME280;63518;49.572;1.106;2023-02-08T04:07:08;101504.94;;;-2.55;78.37
74960;BME280;63518;49.572;1.106;2023-02-08T04:09:36;101532.75;;;-2.54;78.02
74960;BME280;63518;49.572;1.106;2023-02-08T04:12:05;101551.22;;;-2.50;77.09
74960;BME280;63518;49.572;1.106;2023-02-08T04:14:32;101535.19;;;-2.97;76.71
74960;BME280;63518;49.572;1.106;2023-02-08T04:17:05;101498.41;;;-3.53;76.67
74960;BME280;63518;49.572;1.106;2023-02-08T04:19:34;101556.69;;;-2.87;77.00
74960;BME280;63518;49.572;1.106;2023-02-08T04:22:02;101486.88;;;-3.45;76.72
74960;BME280;63518;49.572;1.106;2023-02-08T04:24:30;101553.22;;;-2.97;76.68
74960;BME280;63518;49.572;1.106;2023-02-08T04:26:58;101551.31;;;-2.87;76.45
74960;BME280;63518;49.572;1.106;2023-02-08T04:29:26;101541.31;;;-3.04;78.33
74960;BME280;63518;49.572;1.106;2023-02-08T04:31:53;101560.25;;;-2.86;78.62
74960;BME280;63518;49.572;1.106;2023-02-08T04:34:22;101518.84;;;-2.95;79.76
74960;BME280;63518;49.572;1.106;2023-02-08T04:36:49;101557.06;;;-2.54;79.45
74960;BME280;63518;49.572;1.106;2023-02-08T04:39:18;101539.78;;;-2.62;77.89
74960;BME280;63518;49.572;1.106;2023-02-08T04:41:45;101547.75;;;-2.60;77.02
74960;BME280;63518;49.572;1.106;2023-02-08T04:44:15;101528.97;;;-2.62;79.33
74960;BME280;63518;49.572;1.106;2023-02-08T04:46:43;101549.44;;;-2.41;79.07
74960;BME280;63518;49.572;1.106;2023-02-08T04:49:11;101465.81;;;-2.86;79.30
74960;BME280;63518;49.572;1.106;2023-02-08T04:51:38;101538.25;;;-2.46;78.10
74960;BME280;63518;49.572;1.106;2023-02-08T04:54:06;101529.97;;;-2.63;77.75
74960;BME280;63518;49.572;1.106;2023-02-08T04:56:33;101514.34;;;-3.04;76.70
74960;BME280;63518;49.572;1.106;2023-02-08T04:59:02;101502.59;;;-2.85;76.35
74960;BME280;63518;49.572;1.106;2023-02-08T05:01:33;101495.91;;;-2.81;77.28
74960;BME280;63518;49.572;1.106;2023-02-08T05:04:02;101474.22;;;-3.07;77.32
74960;BME280;63518;49.572;1.106;2023-02-08T05:06:32;101505.81;;;-3.00;77.91
74960;BME280;63518;49.572;1.106;2023-02-08T05:09:05;101500.63;;;-2.66;79.75
74960;BME280;63518;49.572;1.106;2023-02-08T05:11:35;101510.19;;;-2.36;79.73
74960;BME280;63518;49.572;1.106;2023-02-08T05:14:03;101506.84;;;-2.47;78.25
74960;BME280;63518;49.572;1.106;2023-02-08T05:16:31;101491.66;;;-2.66;76.02
74960;BME280;63518;49.572;1.106;2023-02-08T05:19:02;101499.00;;;-2.58;75.86
74960;BME280;63518;49.572;1.106;2023-02-08T05:21:32;101484.81;;;-2.60;78.15
74960;BME280;63518;49.572;1.106;2023-02-08T05:24:00;101498.91;;;-2.31;78.85
74960;BME280;63518;49.572;1.106;2023-02-08T05:26:28;101498.53;;;-2.36;77.82
74960;BME280;63518;49.572;1.106;2023-02-08T05:28:56;101484.19;;;-2.37;77.54
74960;BME280;63518;49.572;1.106;2023-02-08T05:31:24;101474.22;;;-2.89;75.00
74960;BME280;63518;49.572;1.106;2023-02-08T05:33:52;101422.13;;;-3.08;77.21
74960;BME280;63518;49.572;1.106;2023-02-08T05:36:21;101469.59;;;-2.79;78.20
74960;BME280;63518;49.572;1.106;2023-02-08T05:38:49;101475.84;;;-2.61;78.94
74960;BME280;63518;49.572;1.106;2023-02-08T05:41:17;101469.16;;;-2.75;77.18
74960;BME280;63518;49.572;1.106;2023-02-08T05:43:44;101475.94;;;-3.16;76.10
74960;BME280;63518;49.572;1.106;2023-02-08T05:46:12;101481.78;;;-3.48;76.62
74960;BME280;63518;49.572;1.106;2023-02-08T05:48:39;101499.25;;;-2.97;77.56
74960;BME280;63518;49.572;1.106;2023-02-08T05:51:10;101498.63;;;-3.36;76.51
74960;BME280;63518;49.572;1.106;2023-02-08T05:53:37;101486.53;;;-3.32;76.62
74960;BME280;63518;49.572;1.106;2023-02-08T05:56:12;101486.03;;;-3.45;77.01
74960;BME280;63518;49.572;1.106;2023-02-08T05:58:40;101483.88;;;-3.69;77.88
74960;BME280;63518;49.572;1.106;2023-02-08T06:01:12;101497.84;;;-3.01;78.85
74960;BME280;63518;49.572;1.106;2023-02-08T06:03:47;101496.75;;;-3.08;78.99
74960;BME280;63518;49.572;1.106;2023-02-08T06:06:16;101501.41;;;-3.01;78.42
74960;BME280;63518;49.572;1.106;2023-02-08T06:08:43;101505.75;;;-3.17;77.37
74960;BME280;63518;49.572;1.106;2023-02-08T06:11:10;101508.78;;;-2.75;77.64
74960;BME280;63518;49.572;1.106;2023-02-08T06:13:40;101489.94;;;-3.30;76.41
74960;BME280;63518;49.572;1.106;2023-02-08T06:16:07;101509.28;;;-3.07;76.22
74960;BME280;63518;49.572;1.106;2023-02-08T06:18:34;101453.75;;;-3.55;77.22
74960;BME280;63518;49.572;1.106;2023-02-08T06:21:04;101498.16;;;-3.32;76.17
74960;BME280;63518;49.572;1.106;2023-02-08T06:23:33;101499.25;;;-3.52;76.73
74960;BME280;63518;49.572;1.106;2023-02-08T06:26:00;101498.78;;;-3.48;76.60
74960;BME280;63518;49.572;1.106;2023-02-08T06:28:29;101510.03;;;-3.25;76.88
74960;BME280;63518;49.572;1.106;2023-02-08T06:30:56;101502.53;;;-3.21;76.42
74960;BME280;63518;49.572;1.106;2023-02-08T06:33:24;101513.47;;;-3.60;75.89
74960;BME280;63518;49.572;1.106;2023-02-08T06:35:52;101472.84;;;-3.86;76.05
74960;BME280;63518;49.572;1.106;2023-02-08T06:38:22;101519.00;;;-3.61;76.46
74960;BME280;63518;49.572;1.106;2023-02-08T06:40:50;101536.03;;;-3.61;75.58
74960;BME280;63518;49.572;1.106;2023-02-08T06:43:17;101535.44;;;-3.64;77.34
74960;BME280;63518;49.572;1.106;2023-02-08T06:45:45;101507.97;;;-3.68;78.05
74960;BME280;63518;49.572;1.106;2023-02-08T06:48:13;101504.31;;;-3.77;77.60
74960;BME280;63518;49.572;1.106;2023-02-08T06:50:41;101460.09;;;-3.84;77.38
74960;BME280;63518;49.572;1.106;2023-02-08T06:53:12;101502.06;;;-3.44;76.65
74960;BME280;63518;49.572;1.106;2023-02-08T06:55:39;101512.72;;;-3.52;76.04
74960;BME280;63518;49.572;1.106;2023-02-08T06:58:07;101492.50;;;-3.66;76.68
74960;BME280;63518;49.572;1.106;2023-02-08T07:00:34;101484.44;;;-3.76;77.32
74960;BME280;63518;49.572;1.106;2023-02-08T07:03:07;101509.63;;;-3.57;76.99
74960;BME280;63518;49.572;1.106;2023-02-08T07:05:36;101440.16;;;-4.00;76.83
74960;BME280;63518;49.572;1.106;2023-02-08T07:08:04;101436.78;;;-4.03;77.43
74960;BME280;63518;49.572;1.106;2023-02-08T07:10:32;101480.72;;;-3.65;77.75
74960;BME280;63518;49.572;1.106;2023-02-08T07:13:02;101513.03;;;-3.65;76.63
74960;BME280;63518;49.572;1.106;2023-02-08T07:15:31;101514.00;;;-3.56;77.47
74960;BME280;63518;49.572;1.106;2023-02-08T07:17:59;101442.53;;;-3.97;77.45
74960;BME280;63518;49.572;1.106;2023-02-08T07:20:29;101480.44;;;-3.62;77.40
74960;BME280;63518;49.572;1.106;2023-02-08T07:22:59;101450.50;;;-4.06;77.30
74960;BME280;63518;49.572;1.106;2023-02-08T07:25:26;101491.84;;;-3.78;77.04
74960;BME280;63518;49.572;1.106;2023-02-08T07:27:53;101501.94;;;-3.52;77.05
74960;BME280;63518;49.572;1.106;2023-02-08T07:30:21;101505.50;;;-3.52;77.40
74960;BME280;63518;49.572;1.106;2023-02-08T07:32:49;101473.19;;;-3.61;77.57
74960;BME280;63518;49.572;1.106;2023-02-08T07:35:19;101429.88;;;-3.87;76.81
74960;BME280;63518;49.572;1.106;2023-02-08T07:37:55;101487.69;;;-3.35;76.83
74960;BME280;63518;49.572;1.106;2023-02-08T07:40:26;101466.81;;;-3.33;76.36
74960;BME280;63518;49.572;1.106;2023-02-08T07:43:05;101484.97;;;-3.35;76.25
74960;BME280;63518;49.572;1.106;2023-02-08T07:45:42;101499.56;;;-3.28;76.68
74960;BME280;63518;49.572;1.106;2023-02-08T07:48:12;101460.94;;;-3.56;76.87
74960;BME280;63518;49.572;1.106;2023-02-08T07:50:45;101467.97;;;-3.35;76.93
74960;BME280;63518;49.572;1.106;2023-02-08T07:53:12;101473.13;;;-3.14;76.75
74960;BME280;63518;49.572;1.106;2023-02-08T07:55:44;101487.53;;;-3.06;76.53
74960;BME280;63518;49.572;1.106;2023-02-08T07:58:12;101430.38;;;-3.37;76.81
74960;BME280;63518;49.572;1.106;2023-02-08T08:00:41;101476.00;;;-3.26;76.88
74960;BME280;63518;49.572;1.106;2023-02-08T08:03:09;101492.03;;;-2.97;76.27
74960;BME280;63518;49.572;1.106;2023-02-08T08:05:41;101475.91;;;-3.06;76.16
74960;BME280;63518;49.572;1.106;2023-02-08T08:08:09;101498.22;;;-2.51;77.26
74960;BME280;63518;49.572;1.106;2023-02-08T08:10:38;101474.59;;;-2.84;75.45
74960;BME280;63518;49.572;1.106;2023-02-08T08:13:07;101456.78;;;-2.95;76.77
74960;BME280;63518;49.572;1.106;2023-02-08T08:15:34;101474.63;;;-2.67;77.26
74960;BME280;63518;49.572;1.106;2023-02-08T08:18:01;101458.19;;;-2.73;75.76
74960;BME280;63518;49.572;1.106;2023-02-08T08:20:31;101460.59;;;-2.52;75.91
74960;BME280;63518;49.572;1.106;2023-02-08T08:22:59;101434.31;;;-2.68;76.51
74960;BME280;63518;49.572;1.106;2023-02-08T08:25:27;101471.25;;;-2.51;75.37
74960;BME280;63518;49.572;1.106;2023-02-08T08:27:54;101457.19;;;-2.37;76.02
74960;BME280;63518;49.572;1.106;2023-02-08T08:30:22;101455.97;;;-2.42;75.37
74960;BME280;63518;49.572;1.106;2023-02-08T08:32:49;101461.81;;;-2.29;75.03
74960;BME280;63518;49.572;1.106;2023-02-08T08:35:16;101466.88;;;-2.26;74.94
74960;BME280;63518;49.572;1.106;2023-02-08T08:37:44;101463.72;;;-2.39;75.40
74960;BME280;63518;49.572;1.106;2023-02-08T08:40:14;101471.75;;;-2.29;76.08
74960;BME280;63518;49.572;1.106;2023-02-08T08:42:42;101461.00;;;-2.21;76.27
74960;BME280;63518;49.572;1.106;2023-02-08T08:45:09;101446.88;;;-2.15;75.57
74960;BME280;63518;49.572;1.106;2023-02-08T08:47:37;101473.53;;;-1.68;75.39
74960;BME280;63518;49.572;1.106;2023-02-08T08:50:04;101444.44;;;-1.74;74.56
74960;BME280;63518;49.572;1.106;2023-02-08T08:52:32;101475.53;;;-1.70;73.92
74960;BME280;63518;49.572;1.106;2023-02-08T08:54:59;101468.66;;;-1.65;74.57
74960;BME280;63518;49.572;1.106;2023-02-08T08:57:26;101464.09;;;-1.90;74.46
74960;BME280;63518;49.572;1.106;2023-02-08T08:59:53;101461.78;;;-1.85;75.10
74960;BME280;63518;49.572;1.106;2023-02-08T09:02:21;101465.97;;;-1.65;76.50
74960;BME280;63518;49.572;1.106;2023-02-08T09:04:48;101461.00;;;-1.35;76.65
74960;BME280;63518;49.572;1.106;2023-02-08T09:07:15;101441.44;;;-1.29;77.01
74960;BME280;63518;49.572;1.106;2023-02-08T09:09:42;101451.69;;;-0.99;77.18
74960;BME280;63518;49.572;1.106;2023-02-08T09:12:14;101435.31;;;-0.73;77.36
74960;BME280;63518;49.572;1.106;2023-02-08T09:14:42;101391.16;;;-0.73;75.91
74960;BME280;63518;49.572;1.106;2023-02-08T09:17:11;101444.31;;;-0.15;72.65
74960;BME280;63518;49.572;1.106;2023-02-08T09:19:38;101431.91;;;0.07;76.84
74960;BME280;63518;49.572;1.106;2023-02-08T09:22:07;101443.56;;;0.32;75.85
74960;BME280;63518;49.572;1.106;2023-02-08T09:24:34;101443.28;;;0.58;75.33
74960;BME280;63518;49.572;1.106;2023-02-08T09:27:02;101447.34;;;0.93;74.73
74960;BME280;63518;49.572;1.106;2023-02-08T09:29:29;101427.22;;;1.10;74.33
74960;BME280;63518;49.572;1.106;2023-02-08T09:31:58;101440.00;;;1.01;70.06
74960;BME280;63518;49.572;1.106;2023-02-08T09:34:26;101430.09;;;1.63;73.24
74960;BME280;63518;49.572;1.106;2023-02-08T09:36:53;101431.56;;;1.88;72.86
74960;BME280;63518;49.572;1.106;2023-02-08T09:39:22;101439.56;;;2.04;72.47
74960;BME280;63518;49.572;1.106;2023-02-08T09:47:35;101456.28;;;2.90;68.90
74960;BME280;63518;49.572;1.106;2023-02-08T09:50:12;101453.19;;;2.93;68.26
74960;BME280;63518;49.572;1.106;2023-02-08T09:53:01;101463.25;;;2.92;70.14
74960;BME280;63518;49.572;1.106;2023-02-08T09:55:42;101451.22;;;2.87;69.52
74960;BME280;63518;49.572;1.106;2023-02-08T10:00:46;101475.84;;;3.51;69.05
74960;BME280;63518;49.572;1.106;2023-02-08T10:03:26;101476.63;;;3.88;68.41
74960;BME280;63518;49.572;1.106;2023-02-08T10:05:55;101465.59;;;3.74;67.60
74960;BME280;63518;49.572;1.106;2023-02-08T10:08:26;101443.56;;;4.53;67.22
74960;BME280;63518;49.572;1.106;2023-02-08T10:20:23;101470.25;;;5.67;65.19
74960;BME280;63518;49.572;1.106;2023-02-08T10:22:59;101461.03;;;5.94;64.36
74960;BME280;63518;49.572;1.106;2023-02-08T10:28:10;101467.78;;;6.25;65.52
74960;BME280;63518;49.572;1.106;2023-02-08T10:30:47;101467.91;;;6.63;63.85
74960;BME280;63518;49.572;1.106;2023-02-08T10:33:30;101465.25;;;6.17;66.13
74960;BME280;63518;49.572;1.106;2023-02-08T10:35:59;101472.41;;;6.18;62.04
74960;BME280;63518;49.572;1.106;2023-02-08T10:38:26;101474.88;;;7.30;61.26
74960;BME280;63518;49.572;1.106;2023-02-08T10:41:12;101471.19;;;7.11;59.88
74960;BME280;63518;49.572;1.106;2023-02-08T10:43:44;101473.13;;;7.74;56.51
74960;BME280;63518;49.572;1.106;2023-02-08T10:46:16;101471.63;;;7.47;60.48
74960;BME280;63518;49.572;1.106;2023-02-08T10:51:21;101444.28;;;7.90;55.31
74960;BME280;63518;49.572;1.106;2023-02-08T10:53:49;101474.06;;;8.18;57.23
74960;BME280;63518;49.572;1.106;2023-02-08T10:58:56;101464.59;;;8.39;59.52
74960;BME280;63518;49.572;1.106;2023-02-08T11:01:25;101458.16;;;8.26;59.80
74960;BME280;63518;49.572;1.106;2023-02-08T11:04:19;101464.69;;;8.50;58.10
74960;BME280;63518;49.572;1.106;2023-02-08T11:06:50;101464.22;;;8.78;60.04
74960;BME280;63518;49.572;1.106;2023-02-08T11:11:50;101448.78;;;9.44;53.37
74960;BME280;63518;49.572;1.106;2023-02-08T11:14:22;101457.25;;;8.08;57.82
74960;BME280;63518;49.572;1.106;2023-02-08T11:16:57;101450.81;;;9.00;56.96
74960;BME280;63518;49.572;1.106;2023-02-08T11:19:37;101446.00;;;9.74;53.01
74960;BME280;63518;49.572;1.106;2023-02-08T11:22:15;101425.94;;;10.09;49.17
74960;BME280;63518;49.572;1.106;2023-02-08T11:24:44;101437.09;;;10.25;51.63
74960;BME280;63518;49.572;1.106;2023-02-08T11:32:41;101407.72;;;10.66;51.10
74960;BME280;63518;49.572;1.106;2023-02-08T11:35:21;101425.16;;;10.95;45.89
74960;BME280;63518;49.572;1.106;2023-02-08T11:37:56;101419.72;;;11.12;46.11
74960;BME280;63518;49.572;1.106;2023-02-08T11:40:33;101395.63;;;11.07;47.06
74960;BME280;63518;49.572;1.106;2023-02-08T11:43:03;101381.66;;;10.86;46.65
74960;BME280;63518;49.572;1.106;2023-02-08T11:45:37;101408.03;;;11.50;45.80
74960;BME280;63518;49.572;1.106;2023-02-08T11:48:28;101403.59;;;11.49;47.07
74960;BME280;63518;49.572;1.106;2023-02-08T11:51:00;101402.78;;;11.20;48.00
74960;BME280;63518;49.572;1.106;2023-02-08T11:53:33;101398.09;;;11.66;47.91
74960;BME280;63518;49.572;1.106;2023-02-08T11:56:15;101381.91;;;11.70;48.56
74960;BME280;63518;49.572;1.106;2023-02-08T11:59:18;101387.47;;;8.77;38.03
74960;BME280;63518;49.572;1.106;2023-02-08T12:01:46;101382.84;;;8.52;54.17
74960;BME280;63518;49.572;1.106;2023-02-08T12:04:15;101379.88;;;11.36;49.83
74960;BME280;63518;49.572;1.106;2023-02-08T12:06:52;101378.22;;;12.14;43.48
74960;BME280;63518;49.572;1.106;2023-02-08T12:12:26;101380.28;;;12.24;45.71
74960;BME280;63518;49.572;1.106;2023-02-08T12:37:44;101342.19;;;11.14;50.99
74960;BME280;63518;49.572;1.106;2023-02-08T12:43:25;101358.41;;;8.08;41.54
74960;BME280;63518;49.572;1.106;2023-02-08T12:46:21;101355.19;;;9.02;49.73
74960;BME280;63518;49.572;1.106;2023-02-08T12:51:56;101319.19;;;7.26;55.64
74960;BME280;63518;49.572;1.106;2023-02-08T12:55:05;101342.69;;;6.12;43.74
74960;BME280;63518;49.572;1.106;2023-02-08T12:57:30;101329.69;;;7.35;51.00
74960;BME280;63518;49.572;1.106;2023-02-08T13:00:07;101338.47;;;8.12;57.70
74960;BME280;63518;49.572;1.106;2023-02-08T13:02:55;101337.69;;;7.37;44.55
74960;BME280;63518;49.572;1.106;2023-02-08T13:05:30;101340.53;;;11.13;50.58
74960;BME280;63518;49.572;1.106;2023-02-08T13:08:27;101314.22;;;7.91;42.11
74960;BME280;63518;49.572;1.106;2023-02-08T13:14:03;101306.91;;;11.78;46.25
74960;BME280;63518;49.572;1.106;2023-02-08T13:16:38;101302.16;;;12.78;45.10
74960;BME280;63518;49.572;1.106;2023-02-08T13:21:57;101304.00;;;12.67;40.55
74960;BME280;63518;49.572;1.106;2023-02-08T13:26:56;101301.88;;;12.96;40.73
74960;BME280;63518;49.572;1.106;2023-02-08T13:29:24;101301.44;;;13.09;39.31
74960;BME280;63518;49.572;1.106;2023-02-08T13:32:01;101296.59;;;12.72;38.51
74960;BME280;63518;49.572;1.106;2023-02-08T13:34:40;101283.53;;;12.24;38.08
74960;BME280;63518;49.572;1.106;2023-02-08T13:37:18;101285.66;;;12.39;39.75
74960;BME280;63518;49.572;1.106;2023-02-08T13:40:20;101273.31;;;12.46;40.01
74960;BME280;63518;49.572;1.106;2023-02-08T13:43:24;101273.75;;;12.16;39.20
74960;BME280;63518;49.572;1.106;2023-02-08T13:46:03;101271.47;;;11.58;38.16
74960;BME280;63518;49.572;1.106;2023-02-08T13:48:48;101268.69;;;11.91;39.92
74960;BME280;63518;49.572;1.106;2023-02-08T13:56:45;101259.94;;;11.27;40.38
74960;BME280;63518;49.572;1.106;2023-02-08T13:59:24;101258.34;;;11.48;37.38
74960;BME280;63518;49.572;1.106;2023-02-08T14:04:38;101253.97;;;9.93;40.53
74960;BME280;63518;49.572;1.106;2023-02-08T14:09:57;101253.41;;;11.17;38.64
74960;BME280;63518;49.572;1.106;2023-02-08T14:12:36;101227.72;;;10.54;38.72
74960;BME280;63518;49.572;1.106;2023-02-08T14:17:49;101226.03;;;10.13;40.01
74960;BME280;63518;49.572;1.106;2023-02-08T14:20:20;101229.53;;;10.48;43.45
74960;BME280;63518;49.572;1.106;2023-02-08T14:22:54;101224.88;;;10.66;42.24
74960;BME280;63518;49.572;1.106;2023-02-08T14:25:26;101199.44;;;10.07;42.14
74960;BME280;63518;49.572;1.106;2023-02-08T14:28:01;101211.34;;;9.84;40.90
74960;BME280;63518;49.572;1.106;2023-02-08T14:30:34;101219.31;;;10.20;44.19
74960;BME280;63518;49.572;1.106;2023-02-08T14:35:32;101204.22;;;10.97;41.08
74960;BME280;63518;49.572;1.106;2023-02-08T14:38:49;101217.28;;;10.56;40.37
74960;BME280;63518;49.572;1.106;2023-02-08T14:44:57;101196.97;;;10.91;39.49
74960;BME280;63518;49.572;1.106;2023-02-08T14:50:00;101198.44;;;9.14;33.97
74960;BME280;63518;49.572;1.106;2023-02-08T14:52:32;101198.44;;;12.04;39.74
74960;BME280;63518;49.572;1.106;2023-02-08T14:55:18;101180.59;;;12.66;36.91
74960;BME280;63518;49.572;1.106;2023-02-08T14:57:56;101173.69;;;11.54;33.99
74960;BME280;63518;49.572;1.106;2023-02-08T15:00:34;101188.63;;;11.75;38.69
74960;BME280;63518;49.572;1.106;2023-02-08T15:03:05;101178.66;;;10.85;37.33
74960;BME280;63518;49.572;1.106;2023-02-08T15:05:45;101172.22;;;10.22;37.96
74960;BME280;63518;49.572;1.106;2023-02-08T15:08:23;101173.88;;;11.30;39.08
74960;BME280;63518;49.572;1.106;2023-02-08T15:10:51;101151.97;;;9.88;39.52
74960;BME280;63518;49.572;1.106;2023-02-08T15:13:21;101170.16;;;10.29;38.87
74960;BME280;63518;49.572;1.106;2023-02-08T15:15:55;101180.94;;;9.79;39.97